createdAt,value
2022-09-01T00:01:09.112Z,15.2
2022-09-01T00:02:26.217Z,15.3
2022-09-01T00:03:43.321Z,15.2
2022-09-01T00:05:00.426Z,15.1
2022-09-01T00:06:17.530Z,15.1
2022-09-01T00:07:34.634Z,15.2
2022-09-01T00:08:51.738Z,15.1
2022-09-01T00:10:08.842Z,15.1
2022-09-01T00:11:25.946Z,15
2022-09-01T00:12:43.051Z,15
2022-09-01T00:14:00.155Z,15
2022-09-01T00:15:16.275Z,14.9
2022-09-01T00:16:33.379Z,14.8
2022-09-01T00:17:50.484Z,14.8
2022-09-01T00:19:07.588Z,14.9
2022-09-01T00:20:24.692Z,15
2022-09-01T00:21:41.796Z,14.9
2022-09-01T00:22:57.917Z,14.9
2022-09-01T00:24:15.021Z,14.9
2022-09-01T00:25:32.125Z,15
2022-09-01T00:26:49.227Z,14.9
2022-09-01T00:28:06.331Z,14.9
2022-09-01T00:29:23.436Z,14.8
2022-09-01T00:30:40.540Z,14.8
2022-09-01T00:31:57.644Z,14.8
2022-09-01T00:33:14.748Z,14.8
2022-09-01T00:34:31.852Z,14.7
2022-09-01T00:35:48.956Z,14.6
2022-09-01T00:37:06.060Z,14.6
2022-09-01T00:38:23.165Z,14.6
2022-09-01T00:39:39.285Z,14.6
2022-09-01T00:40:56.390Z,14.5
2022-09-01T00:42:13.494Z,14.5
2022-09-01T00:43:30.598Z,14.5
2022-09-01T00:44:47.702Z,14.5
2022-09-01T00:46:04.807Z,14.5
2022-09-01T00:47:21.911Z,14.4
2022-09-01T00:48:39.015Z,14.5
2022-09-01T00:49:56.119Z,14.5
2022-09-01T00:51:13.224Z,14.5
2022-09-01T00:52:30.328Z,14.5
2022-09-01T00:53:47.432Z,14.5
2022-09-01T00:55:04.537Z,14.4
2022-09-01T00:56:20.657Z,14.4
2022-09-01T00:57:37.762Z,14.4
2022-09-01T00:58:54.866Z,14.4
2022-09-01T01:00:11.971Z,14.5
2022-09-01T01:01:29.075Z,14.4
2022-09-01T01:02:46.180Z,14.4
2022-09-01T01:04:03.284Z,14.4
2022-09-01T01:05:20.388Z,14.3
2022-09-01T01:06:37.493Z,14.3
2022-09-01T01:07:54.597Z,14.3
2022-09-01T01:09:11.701Z,14.2
2022-09-01T01:10:28.806Z,14.1
2022-09-01T01:11:45.910Z,14.1
2022-09-01T01:13:02.030Z,14.2
2022-09-01T01:14:19.135Z,14.2
2022-09-01T01:15:36.239Z,14.2
2022-09-01T01:16:53.343Z,14.1
2022-09-01T01:18:10.447Z,14.1
2022-09-01T01:19:27.552Z,14.1
2022-09-01T01:20:44.656Z,14.1
2022-09-01T01:22:01.760Z,14.1
2022-09-01T01:23:18.865Z,14
2022-09-01T01:24:35.969Z,14
2022-09-01T01:25:53.074Z,14
2022-09-01T01:27:10.178Z,14
2022-09-01T01:28:27.282Z,13.9
2022-09-01T01:29:43.403Z,13.9
2022-09-01T01:31:00.507Z,13.9
2022-09-01T01:32:17.611Z,13.9
2022-09-01T01:33:34.716Z,13.9
2022-09-01T01:34:51.820Z,13.8
2022-09-01T01:36:08.925Z,13.8
2022-09-01T01:37:26.029Z,13.8
2022-09-01T01:38:43.133Z,13.7
2022-09-01T01:40:00.237Z,13.6
2022-09-01T01:41:17.342Z,13.6
2022-09-01T01:42:34.446Z,13.7
2022-09-01T01:43:51.550Z,13.7
2022-09-01T01:45:08.655Z,13.8
2022-09-01T01:46:24.775Z,13.8
2022-09-01T01:47:41.880Z,13.7
2022-09-01T01:48:58.985Z,13.7
2022-09-01T01:50:16.090Z,13.7
2022-09-01T01:51:33.194Z,13.7
2022-09-01T01:52:50.298Z,13.6
2022-09-01T01:54:07.403Z,13.7
2022-09-01T01:55:24.507Z,13.6
2022-09-01T01:56:41.612Z,13.6
2022-09-01T01:57:58.716Z,13.6
2022-09-01T01:59:15.820Z,13.6
2022-09-01T02:00:32.925Z,13.6
2022-09-01T02:01:50.029Z,13.6
2022-09-01T02:03:06.149Z,13.6
2022-09-01T02:04:23.254Z,13.6
2022-09-01T02:05:40.358Z,13.6
2022-09-01T02:06:57.462Z,13.6
2022-09-01T02:08:14.566Z,13.6
2022-09-01T02:09:31.671Z,13.5
2022-09-01T02:10:48.775Z,13.5
2022-09-01T02:12:05.880Z,13.5
2022-09-01T02:13:22.984Z,13.5
2022-09-01T02:14:40.088Z,13.5
2022-09-01T02:15:57.193Z,13.4
2022-09-01T02:17:14.297Z,13.4
2022-09-01T02:18:31.401Z,13.4
2022-09-01T02:19:47.522Z,13.5
2022-09-01T02:21:04.626Z,13.5
2022-09-01T02:22:21.730Z,13.5
2022-09-01T02:23:38.835Z,13.5
2022-09-01T02:24:55.939Z,13.5
2022-09-01T02:26:13.043Z,13.4
2022-09-01T02:27:30.148Z,13.4
2022-09-01T02:28:47.252Z,13.4
2022-09-01T02:30:04.356Z,13.3
2022-09-01T02:31:21.461Z,13.3
2022-09-01T02:32:38.565Z,13.2
2022-09-01T02:33:55.669Z,13.2
2022-09-01T02:35:12.773Z,13.1
2022-09-01T02:36:28.894Z,13.1
2022-09-01T02:37:45.998Z,13.1
2022-09-01T02:39:03.102Z,13
2022-09-01T02:40:20.207Z,13
2022-09-01T02:41:37.311Z,13
2022-09-01T02:42:54.415Z,13
2022-09-01T02:44:11.520Z,13
2022-09-01T02:45:28.624Z,13
2022-09-01T02:46:45.728Z,13
2022-09-01T02:48:02.832Z,13
2022-09-01T02:49:19.936Z,13
2022-09-01T02:50:37.041Z,13.1
2022-09-01T02:51:54.145Z,13.1
2022-09-01T02:53:10.265Z,13.1
2022-09-01T02:54:27.371Z,13.1
2022-09-01T02:55:44.475Z,13
2022-09-01T02:57:01.579Z,13
2022-09-01T02:58:18.684Z,12.9
2022-09-01T02:59:35.788Z,12.8
2022-09-01T03:00:52.892Z,12.8
2022-09-01T03:02:09.996Z,12.8
2022-09-01T03:03:27.101Z,12.7
2022-09-01T03:04:44.205Z,12.7
2022-09-01T03:06:01.309Z,12.7
2022-09-01T03:07:18.414Z,12.7
2022-09-01T03:08:35.518Z,12.6
2022-09-01T03:09:51.638Z,12.6
2022-09-01T03:11:08.743Z,12.7
2022-09-01T03:12:25.847Z,12.7
2022-09-01T03:13:42.951Z,12.7
2022-09-01T03:15:00.055Z,12.5
2022-09-01T03:16:17.160Z,12.5
2022-09-01T03:17:34.264Z,12.5
2022-09-01T03:18:51.368Z,12.5
2022-09-01T03:20:08.473Z,12.5
2022-09-01T03:21:25.577Z,12.6
2022-09-01T03:22:42.681Z,12.5
2022-09-01T03:23:59.785Z,12.5
2022-09-01T03:25:16.890Z,12.5
2022-09-01T03:26:33.010Z,12.5
2022-09-01T03:27:50.115Z,12.5
2022-09-01T03:29:07.220Z,12.5
2022-09-01T03:30:24.324Z,12.5
2022-09-01T03:31:41.428Z,12.4
2022-09-01T03:32:58.533Z,12.3
2022-09-01T03:34:15.637Z,12.4
2022-09-01T03:35:32.741Z,12.4
2022-09-01T03:36:49.846Z,12.4
2022-09-01T03:38:06.950Z,12.4
2022-09-01T03:39:24.054Z,12.4
2022-09-01T03:40:41.159Z,12.4
2022-09-01T03:41:58.263Z,12.4
2022-09-01T03:43:14.383Z,12.4
2022-09-01T03:44:31.488Z,12.4
2022-09-01T03:45:48.592Z,12.4
2022-09-01T03:47:05.696Z,12.3
2022-09-01T03:48:22.801Z,12.3
2022-09-01T03:49:39.905Z,12.2
2022-09-01T03:50:57.010Z,12.2
2022-09-01T03:52:14.114Z,12.2
2022-09-01T03:53:31.218Z,12.1
2022-09-01T03:54:48.322Z,12.1
2022-09-01T03:56:05.425Z,12.2
2022-09-01T03:57:22.529Z,12.1
2022-09-01T03:58:39.633Z,12.1
2022-09-01T03:59:55.754Z,12.1
2022-09-01T04:01:12.859Z,12.1
2022-09-01T04:02:29.963Z,12.1
2022-09-01T04:03:47.067Z,12
2022-09-01T04:05:04.171Z,12.1
2022-09-01T04:06:21.276Z,12
2022-09-01T04:07:38.380Z,12
2022-09-01T04:08:55.484Z,12
2022-09-01T04:10:12.590Z,12
2022-09-01T04:11:29.694Z,11.9
2022-09-01T04:12:46.799Z,11.9
2022-09-01T04:14:03.903Z,11.8
2022-09-01T04:15:21.007Z,11.8
2022-09-01T04:16:37.128Z,11.8
2022-09-01T04:17:54.232Z,11.8
2022-09-01T04:19:11.335Z,11.8
2022-09-01T04:20:28.439Z,11.8
2022-09-01T04:21:45.543Z,11.8
2022-09-01T04:23:02.648Z,11.8
2022-09-01T04:24:19.752Z,11.8
2022-09-01T04:25:36.858Z,11.7
2022-09-01T04:26:53.962Z,11.6
2022-09-01T04:28:11.066Z,11.6
2022-09-01T04:29:28.171Z,11.6
2022-09-01T04:30:45.275Z,11.5
2022-09-01T04:32:02.380Z,11.5
2022-09-01T04:33:18.500Z,11.6
2022-09-01T04:34:35.605Z,11.6
2022-09-01T04:35:52.709Z,11.6
2022-09-01T04:37:09.814Z,11.6
2022-09-01T04:38:26.918Z,11.6
2022-09-01T04:39:44.022Z,11.7
2022-09-01T04:41:00.143Z,11.7
2022-09-01T04:42:17.247Z,11.7
2022-09-01T04:43:34.352Z,11.7
2022-09-01T04:44:51.456Z,11.7
2022-09-01T04:46:08.561Z,11.7
2022-09-01T04:47:25.665Z,11.7
2022-09-01T04:48:42.769Z,11.7
2022-09-01T04:49:59.874Z,11.7
2022-09-01T04:51:16.978Z,11.6
2022-09-01T04:52:34.083Z,11.7
2022-09-01T04:53:51.187Z,11.7
2022-09-01T04:55:08.291Z,11.7
2022-09-01T04:56:25.396Z,11.7
2022-09-01T04:57:41.517Z,11.7
2022-09-01T04:58:58.621Z,11.6
2022-09-01T05:00:15.725Z,11.6
2022-09-01T05:01:32.830Z,11.6
2022-09-01T05:02:49.934Z,11.6
2022-09-01T05:04:07.039Z,11.5
2022-09-01T05:05:24.143Z,11.5
2022-09-01T05:06:41.247Z,11.6
2022-09-01T05:07:58.352Z,11.6
2022-09-01T05:09:15.457Z,11.6
2022-09-01T05:10:32.561Z,11.7
2022-09-01T05:11:49.665Z,11.7
2022-09-01T05:13:06.770Z,11.7
2022-09-01T05:14:22.890Z,11.7
2022-09-01T05:15:39.995Z,11.8
2022-09-01T05:16:57.099Z,11.8
2022-09-01T05:18:14.204Z,11.7
2022-09-01T05:19:31.308Z,11.8
2022-09-01T05:20:48.413Z,12
2022-09-01T05:22:05.517Z,12.5
2022-09-01T05:23:22.621Z,13
2022-09-01T05:24:39.726Z,12.8
2022-09-01T05:25:56.830Z,12.5
2022-09-01T05:27:13.934Z,12.6
2022-09-01T05:28:31.039Z,12.6
2022-09-01T05:29:48.143Z,13.1
2022-09-01T05:31:04.264Z,14
2022-09-01T05:32:21.368Z,14.8
2022-09-01T05:33:38.472Z,15.4
2022-09-01T05:34:55.577Z,16.1
2022-09-01T05:36:12.681Z,16.6
2022-09-01T05:37:29.785Z,17.3
2022-09-01T05:38:46.889Z,17.9
2022-09-01T05:40:03.993Z,18.4
2022-09-01T05:41:21.098Z,18.6
2022-09-01T05:42:38.202Z,18.8
2022-09-01T05:43:55.306Z,19.2
2022-09-01T05:45:12.410Z,19.7
2022-09-01T05:46:29.514Z,19.9
2022-09-01T05:47:45.634Z,20.3
2022-09-01T05:49:02.738Z,20.9
2022-09-01T05:50:19.842Z,21.4
2022-09-01T05:51:36.946Z,21.7
2022-09-01T05:52:54.051Z,21.6
2022-09-01T05:54:11.155Z,22
2022-09-01T05:55:28.259Z,22.3
2022-09-01T05:56:45.362Z,22.8
2022-09-01T05:58:02.466Z,23.5
2022-09-01T05:59:19.570Z,24
2022-09-01T06:00:36.674Z,24.3
2022-09-01T06:01:53.778Z,24.8
2022-09-01T06:03:10.883Z,25
2022-09-01T06:04:27.003Z,25.2
2022-09-01T06:05:44.107Z,25.3
2022-09-01T06:07:01.211Z,25.6
2022-09-01T06:08:18.316Z,25.7
2022-09-01T06:09:35.420Z,26
2022-09-01T06:10:52.524Z,26.4
2022-09-01T06:12:09.628Z,26.6
2022-09-01T06:13:26.733Z,26.9
2022-09-01T06:14:43.837Z,27.5
2022-09-01T06:16:00.941Z,27.7
2022-09-01T06:17:18.045Z,28.1
2022-09-01T06:18:35.149Z,28.4
2022-09-01T06:19:52.253Z,28.6
2022-09-01T06:21:08.373Z,28.5
2022-09-01T06:22:25.478Z,28.7
2022-09-01T06:23:42.582Z,28.5
2022-09-01T06:24:59.686Z,29
2022-09-01T06:26:16.791Z,29.5
2022-09-01T06:27:33.896Z,29.8
2022-09-01T06:28:51.000Z,29.8
2022-09-01T06:30:08.104Z,29.8
2022-09-01T06:31:25.208Z,30
2022-09-01T06:32:42.311Z,30.3
2022-09-01T06:33:59.415Z,30.3
2022-09-01T06:35:16.519Z,30.2
2022-09-01T06:36:33.624Z,30.3
2022-09-01T06:37:49.744Z,30.5
2022-09-01T06:39:06.848Z,30.7
2022-09-01T06:40:23.953Z,30.9
2022-09-01T06:41:41.057Z,31
2022-09-01T06:42:58.162Z,31.1
2022-09-01T06:44:15.266Z,31.3
2022-09-01T06:45:32.370Z,31.2
2022-09-01T06:46:49.475Z,31
2022-09-01T06:48:06.580Z,31.2
2022-09-01T06:49:23.684Z,31.1
2022-09-01T06:50:40.788Z,30.5
2022-09-01T06:51:57.893Z,29.9
2022-09-01T06:53:14.998Z,29.8
2022-09-01T06:54:31.118Z,29.4
2022-09-01T06:55:48.223Z,28.7
2022-09-01T06:57:05.327Z,28.2
2022-09-01T06:58:22.432Z,28
2022-09-01T06:59:39.536Z,28
2022-09-01T07:00:56.641Z,28
2022-09-01T07:02:13.745Z,28
2022-09-01T07:03:30.849Z,28.3
2022-09-01T07:04:47.955Z,28.2
2022-09-01T07:06:05.059Z,28.2
2022-09-01T07:07:22.164Z,27.8
2022-09-01T07:08:39.268Z,27.7
2022-09-01T07:09:56.373Z,27.7
2022-09-01T07:11:12.494Z,27.6
2022-09-01T07:12:29.598Z,27.9
2022-09-01T07:13:46.702Z,28.4
2022-09-01T07:15:03.807Z,28.8
2022-09-01T07:16:20.911Z,29.4
2022-09-01T07:17:38.015Z,30.2
2022-09-01T07:18:55.120Z,30.7
2022-09-01T07:20:12.224Z,31.4
2022-09-01T07:21:29.329Z,32.1
2022-09-01T07:22:46.434Z,32
2022-09-01T07:24:03.539Z,31.4
2022-09-01T07:25:20.643Z,31.5
2022-09-01T07:26:37.748Z,31.6
2022-09-01T07:27:53.869Z,31.9
2022-09-01T07:29:10.974Z,31.8
2022-09-01T07:30:28.079Z,31.8
2022-09-01T07:31:45.183Z,32.2
2022-09-01T07:33:02.288Z,32
2022-09-01T07:34:19.393Z,32.1
2022-09-01T07:35:36.498Z,32.3
2022-09-01T07:36:53.602Z,32.3
2022-09-01T07:38:10.707Z,32.7
2022-09-01T07:39:27.812Z,33
2022-09-01T07:40:44.917Z,33.6
2022-09-01T07:42:02.022Z,34.1
2022-09-01T07:43:19.127Z,34.4
2022-09-01T07:44:35.248Z,34.4
2022-09-01T07:45:52.353Z,33.9
2022-09-01T07:47:09.459Z,33.2
2022-09-01T07:48:26.564Z,33.1
2022-09-01T07:49:43.669Z,33.1
2022-09-01T07:51:00.774Z,33
2022-09-01T07:52:17.879Z,33.1
2022-09-01T07:53:34.982Z,32.9
2022-09-01T07:54:52.087Z,32.6
2022-09-01T07:56:09.192Z,31.8
2022-09-01T07:57:26.297Z,31.1
2022-09-01T07:58:43.402Z,30.3
2022-09-01T08:00:00.507Z,30.5
2022-09-01T08:01:16.628Z,31
2022-09-01T08:02:33.733Z,31.5
2022-09-01T08:03:50.839Z,31.6
2022-09-01T08:05:07.944Z,32.2
2022-09-01T08:06:25.049Z,32.5
2022-09-01T08:07:42.154Z,32.2
2022-09-01T08:08:59.259Z,31.4
2022-09-01T08:10:16.364Z,31.8
2022-09-01T08:11:33.469Z,32.4
2022-09-01T08:12:50.574Z,32.2
2022-09-01T08:14:07.679Z,31.5
2022-09-01T08:15:24.784Z,30.5
2022-09-01T08:16:41.890Z,30.5
2022-09-01T08:17:58.010Z,30.2
2022-09-01T08:19:15.115Z,29.6
2022-09-01T08:20:32.220Z,29.4
2022-09-01T08:21:49.325Z,29.8
2022-09-01T08:23:06.429Z,30.2
2022-09-01T08:24:23.534Z,31
2022-09-01T08:25:40.639Z,31.1
2022-09-01T08:26:57.744Z,30.8
2022-09-01T08:28:14.849Z,30.3
2022-09-01T08:29:31.953Z,30.3
2022-09-01T08:30:49.058Z,30
2022-09-01T08:32:06.163Z,29.9
2022-09-01T08:33:23.268Z,29.3
2022-09-01T08:34:39.389Z,29.3
2022-09-01T08:35:56.494Z,28.7
2022-09-01T08:37:13.599Z,28.5
2022-09-01T08:38:30.703Z,28.1
2022-09-01T08:39:47.808Z,28.6
2022-09-01T08:41:04.913Z,29
2022-09-01T08:42:22.017Z,29.2
2022-09-01T08:43:39.122Z,29.2
2022-09-01T08:44:56.227Z,28.6
2022-09-01T08:46:13.331Z,28.8
2022-09-01T08:47:30.436Z,28.1
2022-09-01T08:48:47.541Z,27.9
2022-09-01T08:50:04.646Z,27.7
2022-09-01T08:51:20.766Z,27.7
2022-09-01T08:52:37.871Z,27.9
2022-09-01T08:53:54.976Z,27.7
2022-09-01T08:55:12.080Z,27.5
2022-09-01T08:56:29.185Z,27.7
2022-09-01T08:57:46.290Z,28.1
2022-09-01T08:59:02.410Z,27.5
2022-09-01T09:00:19.515Z,27.4
2022-09-01T09:01:36.619Z,27.6
2022-09-01T09:02:53.724Z,27.7
2022-09-01T09:04:10.829Z,27.4
2022-09-01T09:05:27.933Z,27.4
2022-09-01T09:06:45.038Z,27.4
2022-09-01T09:08:02.143Z,27.5
2022-09-01T09:09:19.248Z,27.7
2022-09-01T09:10:36.353Z,27.4
2022-09-01T09:11:53.457Z,27.3
2022-09-01T09:13:10.562Z,27.2
2022-09-01T09:14:27.666Z,27.3
2022-09-01T09:15:43.787Z,27.6
2022-09-01T09:17:00.891Z,28.2
2022-09-01T09:18:17.996Z,28.3
2022-09-01T09:19:35.101Z,28.2
2022-09-01T09:20:52.205Z,28.1
2022-09-01T09:22:09.310Z,27.9
2022-09-01T09:23:26.414Z,27.1
2022-09-01T09:24:43.519Z,26.6
2022-09-01T09:26:00.624Z,26.7
2022-09-01T09:27:17.729Z,26.8
2022-09-01T09:28:34.834Z,27.2
2022-09-01T09:29:51.938Z,27.3
2022-09-01T09:31:09.042Z,27
2022-09-01T09:32:25.163Z,27.2
2022-09-01T09:33:42.267Z,27.1
2022-09-01T09:34:59.372Z,26.8
2022-09-01T09:36:16.477Z,27.1
2022-09-01T09:37:33.581Z,27.4
2022-09-01T09:38:50.685Z,27.6
2022-09-01T09:40:07.790Z,27.5
2022-09-01T09:41:24.894Z,27.1
2022-09-01T09:42:41.998Z,26.9
2022-09-01T09:43:59.103Z,26.9
2022-09-01T09:45:16.207Z,26.9
2022-09-01T09:46:33.312Z,26.9
2022-09-01T09:47:50.416Z,26.3
2022-09-01T09:49:06.537Z,26.6
2022-09-01T09:50:23.641Z,26.4
2022-09-01T09:51:40.746Z,26.4
2022-09-01T09:52:57.850Z,25.6
2022-09-01T09:54:14.955Z,25.1
2022-09-01T09:55:32.059Z,25.2
2022-09-01T09:56:49.163Z,25.3
2022-09-01T09:58:06.268Z,25.6
2022-09-01T09:59:23.372Z,26
2022-09-01T10:00:40.476Z,25.8
2022-09-01T10:01:57.580Z,24.9
2022-09-01T10:03:14.684Z,24.7
2022-09-01T10:04:31.788Z,24.7
2022-09-01T10:05:47.908Z,24.5
2022-09-01T10:07:05.012Z,25
2022-09-01T10:08:22.116Z,25.3
2022-09-01T10:09:39.220Z,25.5
2022-09-01T10:10:56.324Z,25.7
2022-09-01T10:12:13.428Z,25.5
2022-09-01T10:13:30.532Z,25.3
2022-09-01T10:14:47.637Z,24.7
2022-09-01T10:16:04.742Z,24.5
2022-09-01T10:17:21.846Z,24.6
2022-09-01T10:18:38.950Z,24.4
2022-09-01T10:19:56.055Z,24.1
2022-09-01T10:21:13.160Z,24.4
2022-09-01T10:22:29.281Z,24.8
2022-09-01T10:23:46.385Z,24.7
2022-09-01T10:25:03.489Z,24.3
2022-09-01T10:26:20.593Z,23.9
2022-09-01T10:27:37.697Z,23.8
2022-09-01T10:28:54.801Z,23.9
2022-09-01T10:30:11.905Z,24
2022-09-01T10:31:29.010Z,24
2022-09-01T10:32:46.114Z,23.8
2022-09-01T10:34:03.218Z,23.8
2022-09-01T10:35:20.322Z,23.9
2022-09-01T10:36:37.426Z,24.2
2022-09-01T10:37:54.530Z,24.4
2022-09-01T10:39:10.650Z,24.4
2022-09-01T10:40:27.754Z,24.6
2022-09-01T10:41:44.858Z,24.6
2022-09-01T10:43:01.962Z,24.5
2022-09-01T10:44:19.066Z,24.2
2022-09-01T10:45:36.170Z,24.1
2022-09-01T10:46:53.274Z,23.5
2022-09-01T10:48:10.378Z,23.4
2022-09-01T10:49:27.482Z,23.3
2022-09-01T10:50:44.587Z,23.3
2022-09-01T10:52:01.691Z,23.3
2022-09-01T10:53:18.793Z,23.5
2022-09-01T10:54:35.898Z,23.4
2022-09-01T10:55:52.018Z,23.3
2022-09-01T10:57:09.122Z,23.3
2022-09-01T10:58:26.226Z,23.3
2022-09-01T10:59:43.330Z,23.3
2022-09-01T11:01:00.435Z,23.5
2022-09-01T11:02:17.539Z,23.6
2022-09-01T11:03:34.643Z,23.8
2022-09-01T11:04:51.747Z,23.8
2022-09-01T11:06:08.851Z,23.5
2022-09-01T11:07:25.955Z,23.6
2022-09-01T11:08:43.059Z,23.7
2022-09-01T11:10:00.164Z,23.7
2022-09-01T11:11:17.268Z,23.7
2022-09-01T11:12:33.388Z,23.8
2022-09-01T11:13:50.492Z,23.9
2022-09-01T11:15:07.596Z,23.9
2022-09-01T11:16:24.700Z,23.8
2022-09-01T11:17:41.804Z,23.7
2022-09-01T11:18:58.908Z,23.4
2022-09-01T11:20:16.012Z,23.4
2022-09-01T11:21:33.116Z,23.3
2022-09-01T11:22:50.221Z,23.2
2022-09-01T11:24:07.325Z,23.2
2022-09-01T11:25:24.429Z,23.3
2022-09-01T11:26:41.533Z,23.3
2022-09-01T11:27:58.637Z,23.4
2022-09-01T11:29:14.757Z,23.5
2022-09-01T11:30:31.861Z,23.7
2022-09-01T11:31:48.965Z,23.8
2022-09-01T11:33:06.069Z,23.8
2022-09-01T11:34:23.173Z,23.8
2022-09-01T11:35:40.277Z,23.9
2022-09-01T11:36:57.381Z,24
2022-09-01T11:38:14.485Z,23.6
2022-09-01T11:39:31.589Z,23.4
2022-09-01T11:40:48.693Z,23.3
2022-09-01T11:42:05.797Z,23.2
2022-09-01T11:43:22.901Z,23.1
2022-09-01T11:44:40.005Z,23.2
2022-09-01T11:45:56.125Z,23.2
2022-09-01T11:47:13.229Z,23.3
2022-09-01T11:48:30.333Z,23.4
2022-09-01T11:49:47.437Z,23.5
2022-09-01T11:51:04.541Z,23.5
2022-09-01T11:52:21.645Z,23.3
2022-09-01T11:53:38.749Z,23.3
2022-09-01T11:54:55.852Z,23.4
2022-09-01T11:56:12.956Z,23.6
2022-09-01T11:57:30.060Z,23.7
2022-09-01T11:58:47.164Z,23.8
2022-09-01T12:00:04.268Z,24
2022-09-01T12:01:21.372Z,24.2
2022-09-01T12:02:37.492Z,24.3
2022-09-01T12:03:54.596Z,24.3
2022-09-01T12:05:11.700Z,24.3
2022-09-01T12:06:28.804Z,24.1
2022-09-01T12:07:45.907Z,24
2022-09-01T12:09:03.011Z,23.8
2022-09-01T12:10:20.115Z,23.5
2022-09-01T12:11:37.220Z,23.6
2022-09-01T12:12:54.324Z,23.8
2022-09-01T12:14:11.428Z,23.8
2022-09-01T12:15:28.532Z,23.8
2022-09-01T12:16:45.636Z,23.9
2022-09-01T12:18:02.740Z,24
2022-09-01T12:19:18.860Z,24.1
2022-09-01T12:20:35.964Z,24.2
2022-09-01T12:21:53.068Z,24.4
2022-09-01T12:23:10.173Z,24.4
2022-09-01T12:24:27.277Z,24.3
2022-09-01T12:25:44.380Z,24
2022-09-01T12:27:01.484Z,24
2022-09-01T12:28:18.588Z,23.8
2022-09-01T12:29:35.692Z,23.9
2022-09-01T12:30:52.794Z,23.8
2022-09-01T12:32:09.898Z,23.7
2022-09-01T12:33:27.002Z,23.5
2022-09-01T12:34:44.106Z,23.4
2022-09-01T12:36:00.226Z,23.4
2022-09-01T12:37:17.330Z,23.6
2022-09-01T12:38:34.433Z,23.7
2022-09-01T12:39:51.537Z,23.8
2022-09-01T12:41:08.641Z,23.9
2022-09-01T12:42:25.745Z,24
2022-09-01T12:43:42.848Z,24
2022-09-01T12:44:59.953Z,24
2022-09-01T12:46:17.056Z,24.1
2022-09-01T12:47:34.160Z,24.4
2022-09-01T12:48:51.264Z,24.4
2022-09-01T12:50:08.368Z,24.4
2022-09-01T12:51:25.472Z,24.5
2022-09-01T12:52:41.592Z,24.5
2022-09-01T12:53:58.695Z,24.5
2022-09-01T12:55:15.799Z,24.5
2022-09-01T12:56:32.903Z,24.7
2022-09-01T12:57:50.007Z,24.9
2022-09-01T12:59:07.111Z,25
2022-09-01T13:00:24.215Z,25
2022-09-01T13:01:41.319Z,24.8
2022-09-01T13:02:58.423Z,24.9
2022-09-01T13:04:15.527Z,25.2
2022-09-01T13:05:32.630Z,25.2
2022-09-01T13:06:49.735Z,25
2022-09-01T13:08:06.839Z,25
2022-09-01T13:09:22.959Z,25
2022-09-01T13:10:40.063Z,25
2022-09-01T13:11:57.167Z,25.1
2022-09-01T13:13:14.271Z,25.2
2022-09-01T13:14:31.375Z,25.3
2022-09-01T13:15:48.479Z,25.4
2022-09-01T13:17:04.600Z,25.5
2022-09-01T13:18:21.704Z,25.5
2022-09-01T13:19:38.808Z,25.5
2022-09-01T13:20:55.912Z,25.4
2022-09-01T13:22:13.016Z,25.5
2022-09-01T13:23:30.120Z,25.5
2022-09-01T13:24:47.225Z,25.6
2022-09-01T13:26:04.329Z,25.4
2022-09-01T13:27:21.433Z,25.3
2022-09-01T13:28:38.537Z,25.4
2022-09-01T13:29:55.641Z,24.9
2022-09-01T13:31:12.746Z,24.8
2022-09-01T13:32:29.850Z,24.7
2022-09-01T13:33:45.970Z,24.7
2022-09-01T13:35:03.074Z,24.6
2022-09-01T13:36:20.178Z,24.5
2022-09-01T13:37:37.282Z,24.3
2022-09-01T13:38:54.386Z,24.2
2022-09-01T13:40:11.491Z,24.4
2022-09-01T13:41:28.595Z,24.7
2022-09-01T13:42:45.699Z,24.8
2022-09-01T13:44:02.803Z,24.9
2022-09-01T13:45:19.907Z,25.1
2022-09-01T13:46:37.011Z,25.2
2022-09-01T13:47:54.115Z,25.1
2022-09-01T13:49:11.219Z,25.2
2022-09-01T13:50:27.339Z,25.2
2022-09-01T13:51:44.444Z,25.3
2022-09-01T13:53:01.548Z,25.4
2022-09-01T13:54:18.652Z,25.4
2022-09-01T13:55:35.756Z,25.5
2022-09-01T13:56:52.860Z,25.5
2022-09-01T13:58:09.965Z,25.6
2022-09-01T13:59:27.069Z,25.6
2022-09-01T14:00:44.173Z,25.5
2022-09-01T14:02:01.277Z,25.6
2022-09-01T14:03:18.381Z,25.7
2022-09-01T14:04:35.486Z,25.4
2022-09-01T14:05:52.590Z,25.1
2022-09-01T14:07:08.710Z,25.2
2022-09-01T14:08:25.814Z,25.2
2022-09-01T14:09:42.918Z,25
2022-09-01T14:11:00.022Z,25.1
2022-09-01T14:12:17.126Z,25.3
2022-09-01T14:13:34.231Z,25.2
2022-09-01T14:14:51.335Z,25.3
2022-09-01T14:16:08.439Z,25.5
2022-09-01T14:17:25.543Z,25.5
2022-09-01T14:18:42.647Z,25.5
2022-09-01T14:19:59.751Z,25.3
2022-09-01T14:21:16.855Z,25.3
2022-09-01T14:22:33.959Z,25.4
2022-09-01T14:23:50.079Z,25.3
2022-09-01T14:25:07.183Z,25.4
2022-09-01T14:26:24.288Z,25.3
2022-09-01T14:27:41.392Z,25.2
2022-09-01T14:28:58.496Z,25.2
2022-09-01T14:30:15.600Z,25
2022-09-01T14:31:32.703Z,25.1
2022-09-01T14:32:49.807Z,25
2022-09-01T14:34:06.911Z,25
2022-09-01T14:35:24.015Z,25.1
2022-09-01T14:36:41.119Z,25.1
2022-09-01T14:37:58.223Z,25.2
2022-09-01T14:39:15.327Z,24.8
2022-09-01T14:40:31.447Z,24.8
2022-09-01T14:41:48.551Z,24.7
2022-09-01T14:43:05.655Z,24.7
2022-09-01T14:44:22.759Z,24.8
2022-09-01T14:45:39.863Z,24.8
2022-09-01T14:46:56.967Z,24.9
2022-09-01T14:48:14.071Z,24.9
2022-09-01T14:49:31.174Z,24.9
2022-09-01T14:50:48.278Z,25
2022-09-01T14:52:05.382Z,25
2022-09-01T14:53:22.486Z,25.1
2022-09-01T14:54:39.590Z,25.1
2022-09-01T14:55:56.693Z,25.2
2022-09-01T14:57:12.813Z,24.9
2022-09-01T14:58:29.917Z,25
2022-09-01T14:59:47.022Z,25.1
2022-09-01T15:01:04.126Z,25.1
2022-09-01T15:02:21.230Z,25.1
2022-09-01T15:03:38.334Z,24.9
2022-09-01T15:04:55.438Z,24.9
2022-09-01T15:06:12.542Z,25
2022-09-01T15:07:29.646Z,25
2022-09-01T15:08:46.750Z,25
2022-09-01T15:10:03.854Z,24.9
2022-09-01T15:11:20.958Z,25
2022-09-01T15:12:38.062Z,25
2022-09-01T15:13:54.182Z,25.1
2022-09-01T15:15:11.286Z,24.9
2022-09-01T15:16:28.390Z,24.9
2022-09-01T15:17:45.494Z,24.7
2022-09-01T15:19:02.598Z,24.6
2022-09-01T15:20:19.702Z,24.7
2022-09-01T15:21:36.807Z,24.8
2022-09-01T15:22:53.911Z,24.8
2022-09-01T15:24:11.015Z,24.8
2022-09-01T15:25:28.119Z,24.8
2022-09-01T15:26:45.223Z,24.6
2022-09-01T15:28:02.327Z,24.6
2022-09-01T15:29:19.431Z,24.7
2022-09-01T15:30:35.551Z,24.8
2022-09-01T15:31:52.655Z,24.9
2022-09-01T15:33:09.760Z,25
2022-09-01T15:34:26.864Z,25
2022-09-01T15:35:43.968Z,25
2022-09-01T15:37:01.072Z,25.1
2022-09-01T15:38:18.176Z,25
2022-09-01T15:39:35.280Z,24.9
2022-09-01T15:40:52.384Z,24.9
2022-09-01T15:42:09.488Z,25.1
2022-09-01T15:43:26.592Z,25.2
2022-09-01T15:44:43.696Z,25
2022-09-01T15:46:00.800Z,24.9
2022-09-01T15:47:16.921Z,24.7
2022-09-01T15:48:34.025Z,24.7
2022-09-01T15:49:51.129Z,24.7
2022-09-01T15:51:08.233Z,24.8
2022-09-01T15:52:25.337Z,24.8
2022-09-01T15:53:42.440Z,24.8
2022-09-01T15:54:59.545Z,24.8
2022-09-01T15:56:16.649Z,24.8
2022-09-01T15:57:33.753Z,24.9
2022-09-01T15:58:50.857Z,24.9
2022-09-01T16:00:07.961Z,25
2022-09-01T16:01:25.065Z,24.9
2022-09-01T16:02:42.169Z,25
2022-09-01T16:03:58.289Z,25
2022-09-01T16:05:15.393Z,24.9
2022-09-01T16:06:32.498Z,24.9
2022-09-01T16:07:49.602Z,24.9
2022-09-01T16:09:06.706Z,24.9
2022-09-01T16:10:23.810Z,24.9
2022-09-01T16:11:40.914Z,24.8
2022-09-01T16:12:58.018Z,24.8
2022-09-01T16:14:15.122Z,24.8
2022-09-01T16:15:32.227Z,24.5
2022-09-01T16:16:49.332Z,24.4
2022-09-01T16:18:06.436Z,24.4
2022-09-01T16:19:23.540Z,24.4
2022-09-01T16:20:39.660Z,24.4
2022-09-01T16:21:56.764Z,24.1
2022-09-01T16:23:13.868Z,24.1
2022-09-01T16:24:30.972Z,24.1
2022-09-01T16:25:48.076Z,24
2022-09-01T16:27:05.179Z,24
2022-09-01T16:28:22.285Z,23.9
2022-09-01T16:29:39.390Z,23.9
2022-09-01T16:30:56.494Z,24
2022-09-01T16:32:13.597Z,24
2022-09-01T16:33:30.701Z,24.1
2022-09-01T16:34:47.805Z,24.1
2022-09-01T16:36:04.909Z,24.1
2022-09-01T16:37:21.029Z,24.1
2022-09-01T16:38:38.132Z,24.2
2022-09-01T16:39:55.236Z,24.1
2022-09-01T16:41:12.340Z,24.1
2022-09-01T16:42:29.444Z,24.1
2022-09-01T16:43:46.548Z,24.1
2022-09-01T16:45:03.652Z,24.1
2022-09-01T16:46:20.755Z,24
2022-09-01T16:47:37.859Z,24.1
2022-09-01T16:48:54.963Z,24.1
2022-09-01T16:50:12.067Z,24.1
2022-09-01T16:51:29.171Z,24.1
2022-09-01T16:52:46.274Z,24
2022-09-01T16:54:02.394Z,23.9
2022-09-01T16:55:19.498Z,23.9
2022-09-01T16:56:36.602Z,23.8
2022-09-01T16:57:53.706Z,23.7
2022-09-01T16:59:10.810Z,23.8
2022-09-01T17:00:27.914Z,23.8
2022-09-01T17:01:45.018Z,23.9
2022-09-01T17:03:02.122Z,23.9
2022-09-01T17:04:19.225Z,23.9
2022-09-01T17:05:36.329Z,23.9
2022-09-01T17:06:53.433Z,23.9
2022-09-01T17:08:10.537Z,23.8
2022-09-01T17:09:27.641Z,23.8
2022-09-01T17:10:43.761Z,23.7
2022-09-01T17:12:00.865Z,23.7
2022-09-01T17:13:17.969Z,23.6